Bolan, Iowa
Current Conditions -  °F | °C
As of 7:53 PM on Monday 24 Nov 2014 (Local Time) from KMCW Reporting Station
Light Snow Light Snow  
Wind Chill: -2°   Ceiling: 1700
Heat Index: 16°   Visibility: 3mi
Dew Point: 12°   Wind: 23mph
Humidity: 84%   Direction: 310°NW
Pressure: 29.82"   Gusts: NA
Location:  43.3847°N, 93.1428°W
Report Text: KMCW 250153Z AUTO 31020KT 3SM -SN BR OVC017 M09/M11 A2982 RMK AO2 PK WND 31027/0144 SLP111 P0000 T10891111
Loading
Personal Weather Stations






























Interactive Weather Map New forecast layout! Learn more

10-Day Weather Forecast

Advertisements
Track Severe Weather on mobile